TAF KLNS
KLNS 072326Z 0800/0824 26004KT P6SM BKN120 OVC200 FM080300 VRB02KT P6SM OVC100 FM081500 15005KT P6SM BKN040 OVC100=
METAR KLNS
WC KLNS
WS KLNS
WV KLNS